createdAt,value
2022-09-25T00:00:19.003Z,100209.56
2022-09-25T00:04:41.867Z,100208.39
2022-09-25T00:07:45.491Z,100207.30
2022-09-25T00:10:16.658Z,100206.53
2022-09-25T00:13:07.732Z,100207.30
2022-09-25T00:15:56.496Z,100207.42
2022-09-25T00:18:55.003Z,100201.52
2022-09-25T00:21:31.576Z,100202.04
2022-09-25T00:24:14.069Z,100201.88
2022-09-25T00:27:01.856Z,100205.48
2022-09-25T00:29:40.036Z,100206.40
2022-09-25T00:32:12.578Z,100208.76
2022-09-25T00:34:59.077Z,100208.07
2022-09-25T00:37:30.744Z,100200.93
2022-09-25T00:40:04.012Z,100199.38
2022-09-25T00:42:34.036Z,100201.30
2022-09-25T00:45:18.719Z,100199.41
2022-09-25T00:48:06.684Z,100198.26
2022-09-25T00:51:04.315Z,100192.71
2022-09-25T00:53:44.027Z,100186.80
2022-09-25T00:56:15.646Z,100183.46
2022-09-25T00:58:50.803Z,100185.23
2022-09-25T01:01:20.044Z,100187.18
2022-09-25T01:03:56.340Z,100184.86
2022-09-25T01:06:32.070Z,100185.73
2022-09-25T01:09:05.089Z,100188.65
2022-09-25T01:11:38.852Z,100189.78
2022-09-25T01:14:11.152Z,100188.85
2022-09-25T01:17:09.268Z,100184.62
2022-09-25T01:19:53.095Z,100184.88
2022-09-25T01:22:42.866Z,100187.04
2022-09-25T01:26:16.160Z,100187.16
2022-09-25T01:29:02.070Z,100184.45
2022-09-25T01:32:20.668Z,100181.42
2022-09-25T01:35:11.350Z,100182.80
2022-09-25T01:37:55.665Z,100185.50
2022-09-25T01:40:54.406Z,100185.73
2022-09-25T01:43:39.876Z,100189.67
2022-09-25T01:46:24.438Z,100187.70
2022-09-25T01:49:07.725Z,100185.75
2022-09-25T01:51:50.640Z,100186.37
2022-09-25T01:54:41.733Z,100187.43
2022-09-25T01:57:28.312Z,100191.02
2022-09-25T02:00:08.966Z,100190.61
2022-09-25T02:02:50.280Z,100187.23
2022-09-25T02:05:47.452Z,100185.21
2022-09-25T02:08:49.118Z,100180.92
2022-09-25T02:11:20.456Z,100180.54
2022-09-25T02:14:01.573Z,100182.17
2022-09-25T02:16:44.312Z,100177.67
2022-09-25T02:19:35.624Z,100175.61
2022-09-25T02:22:37.295Z,100167.77
2022-09-25T02:25:24.489Z,100172.64
2022-09-25T02:27:54.596Z,100171.90
2022-09-25T02:30:30.236Z,100171.27
2022-09-25T02:33:02.557Z,100168.55
2022-09-25T02:35:34.353Z,100161.16
2022-09-25T02:38:04.671Z,100158.20
2022-09-25T02:40:52.431Z,100157.58
2022-09-25T02:43:31.822Z,100160.05
2022-09-25T02:46:39.666Z,100161.94
2022-09-25T02:50:31.676Z,100165.71
2022-09-25T02:56:45.362Z,100163.58
2022-09-25T02:59:42.045Z,100160.36
2022-09-25T03:02:13.514Z,100153.96
2022-09-25T03:04:49.549Z,100151.19
2022-09-25T03:07:24.506Z,100151.29
2022-09-25T03:10:01.729Z,100156.39
2022-09-25T03:12:37.372Z,100158.00
2022-09-25T03:15:10.832Z,100156.91
2022-09-25T03:17:51.894Z,100156.16
2022-09-25T03:20:29.626Z,100154.41
2022-09-25T03:23:01.698Z,100154.93
2022-09-25T03:25:38.914Z,100156.16
2022-09-25T03:28:23.572Z,100159.32
2022-09-25T03:31:13.123Z,100160.70
2022-09-25T03:33:59.047Z,100162.19
2022-09-25T03:36:33.128Z,100159.64
2022-09-25T03:39:06.577Z,100159.67
2022-09-25T03:41:41.877Z,100160.06
2022-09-25T03:44:12.484Z,100160.84
2022-09-25T03:46:42.676Z,100157.14
2022-09-25T03:49:23.896Z,100158.08
2022-09-25T03:51:53.462Z,100154.34
2022-09-25T03:54:32.183Z,100156.11
2022-09-25T03:57:08.741Z,100155.83
2022-09-25T03:59:43.818Z,100153.47
2022-09-25T04:02:15.296Z,100154.54
2022-09-25T04:04:47.682Z,100151.27
2022-09-25T04:07:17.691Z,100151.25
2022-09-25T04:09:50.092Z,100155.24
2022-09-25T04:12:19.538Z,100154.23
2022-09-25T04:14:53.155Z,100155.42
2022-09-25T04:17:29.667Z,100154.25
2022-09-25T04:20:02.769Z,100153.70
2022-09-25T04:22:36.659Z,100153.96
2022-09-25T04:25:10.433Z,100153.32
2022-09-25T04:27:46.498Z,100154.58
2022-09-25T04:30:34.308Z,100154.34
2022-09-25T04:33:29.686Z,100155.89
2022-09-25T04:36:08.261Z,100152.35
2022-09-25T04:38:43.324Z,100146.24
2022-09-25T04:41:20.040Z,100145.02
2022-09-25T04:44:08.050Z,100148.91
2022-09-25T04:46:41.048Z,100149.58
2022-09-25T04:49:10.791Z,100145.04
2022-09-25T04:51:44.332Z,100145.88
2022-09-25T04:54:18.351Z,100146.45
2022-09-25T04:56:59.444Z,100147.08
2022-09-25T04:59:34.335Z,100146.84
2022-09-25T05:02:54.606Z,100143.73
2022-09-25T05:15:36.902Z,100143.23
2022-09-25T05:18:23.740Z,100144.59
2022-09-25T05:21:09.297Z,100144.42
2022-09-25T05:23:52.192Z,100142.61
2022-09-25T05:26:37.212Z,100147.08
2022-09-25T05:29:07.014Z,100146.39
2022-09-25T05:31:37.067Z,100147.42
2022-09-25T05:34:07.940Z,100149.33
2022-09-25T05:36:40.730Z,100149.73
2022-09-25T05:39:14.668Z,100155.62
2022-09-25T05:41:45.930Z,100157.74
2022-09-25T05:44:20.244Z,100155.33
2022-09-25T05:47:19.599Z,100155.04
2022-09-25T05:49:49.968Z,100159.22
2022-09-25T05:52:46.900Z,100161.34
2022-09-25T06:05:41.281Z,100153.54
2022-09-25T06:18:51.296Z,100151.33
2022-09-25T06:21:22.802Z,100152.70
2022-09-25T06:23:52.453Z,100158.91
2022-09-25T06:26:29.170Z,100153.84
2022-09-25T06:29:57.673Z,100153.14
2022-09-25T06:32:24.165Z,100154.31
2022-09-25T06:35:04.758Z,100155.69
2022-09-25T06:37:47.936Z,100153.69
2022-09-25T06:40:26.921Z,100155.23
2022-09-25T06:43:34.520Z,100150.16
2022-09-25T06:46:06.474Z,100157.11
2022-09-25T06:48:41.963Z,100156.98
2022-09-25T06:54:24.266Z,100159.79
2022-09-25T06:56:55.229Z,100156.33
2022-09-25T06:59:36.559Z,100163.27
2022-09-25T07:02:30.490Z,100161.50
2022-09-25T07:05:10.818Z,100160.57
2022-09-25T07:07:41.346Z,100155.75
2022-09-25T07:10:11.510Z,100153.54
2022-09-25T07:12:47.201Z,100160.27
2022-09-25T07:15:17.620Z,100158.05
2022-09-25T07:17:50.562Z,100158.15
2022-09-25T07:20:29.090Z,100153.13
2022-09-25T07:24:45.625Z,100152.20
2022-09-25T07:26:12.811Z,100150.93
2022-09-25T07:28:45.830Z,100146.41
2022-09-25T07:31:22.868Z,100143.58
2022-09-25T07:33:57.687Z,100144.68
2022-09-25T07:36:30.166Z,100152.26
2022-09-25T07:39:23.962Z,100150.61
2022-09-25T07:41:59.507Z,100145.37
2022-09-25T07:44:48.461Z,100141.66
2022-09-25T07:47:22.050Z,100144.36
2022-09-25T07:50:04.883Z,100145.50
2022-09-25T07:52:52.081Z,100143.16
2022-09-25T07:55:24.669Z,100142.16
2022-09-25T07:57:57.734Z,100137.98
2022-09-25T08:00:47.923Z,100141.17
2022-09-25T08:03:18.466Z,100140.20
2022-09-25T08:05:51.761Z,100138.24
2022-09-25T08:08:23.760Z,100138.66
2022-09-25T08:11:11.590Z,100133.17
2022-09-25T08:13:47.172Z,100129.45
2022-09-25T08:16:19.416Z,100126.36
2022-09-25T08:18:53.857Z,100130.89
2022-09-25T08:21:23.702Z,100123.86
2022-09-25T08:23:58.889Z,100123.14
2022-09-25T08:26:50.533Z,100121.86
2022-09-25T08:29:29.600Z,100119.92
2022-09-25T08:32:30.513Z,100117.44
2022-09-25T08:35:02.365Z,100116.57
2022-09-25T08:37:47.432Z,100115.42
2022-09-25T08:40:23.426Z,100117.36
2022-09-25T08:43:00.381Z,100115.71
2022-09-25T08:46:03.996Z,100113.63
2022-09-25T08:49:04.128Z,100116.71
2022-09-25T08:51:53.096Z,100108.89
2022-09-25T08:54:43.408Z,100111.91
2022-09-25T08:57:48.970Z,100113.17
2022-09-25T09:00:31.155Z,100110.77
2022-09-25T09:03:08.352Z,100108.20
2022-09-25T09:05:48.209Z,100102.17
2022-09-25T09:08:32.440Z,100095.75
2022-09-25T09:11:15.690Z,100096.58
2022-09-25T09:14:08.112Z,100091.05
2022-09-25T09:17:18.603Z,100091.36
2022-09-25T09:20:31.100Z,100087.13
2022-09-25T09:23:21.637Z,100088.23
2022-09-25T09:26:28.443Z,100085.39
2022-09-25T09:29:33.557Z,100083.83
2022-09-25T09:32:31.481Z,100085.30
2022-09-25T09:35:16.221Z,100079.73
2022-09-25T09:38:12.767Z,100085.13
2022-09-25T09:41:22.972Z,100079.05
2022-09-25T09:44:32.985Z,100071.41
2022-09-25T09:47:21.497Z,100067.94
2022-09-25T09:50:26.727Z,100067.38
2022-09-25T09:53:06.256Z,100061.52
2022-09-25T09:55:45.402Z,100059.02
2022-09-25T09:58:36.062Z,100055.23
2022-09-25T10:01:28.986Z,100053.01
2022-09-25T10:04:26.515Z,100050.81
2022-09-25T10:07:12.409Z,100047.52
2022-09-25T10:09:44.201Z,100041.89
2022-09-25T10:12:37.841Z,100039.09
2022-09-25T10:15:58.574Z,100032.20
2022-09-25T10:18:41.290Z,100029.93
2022-09-25T10:21:16.554Z,100025.20
2022-09-25T10:23:51.365Z,100021.09
2022-09-25T10:26:42.352Z,100022.59
2022-09-25T10:29:21.027Z,100019.67
2022-09-25T10:32:06.953Z,100022.14
2022-09-25T10:34:36.249Z,100023.61
2022-09-25T10:37:20.482Z,100022.23
2022-09-25T10:40:22.955Z,100013.84
2022-09-25T10:43:20.745Z,100018.73
2022-09-25T10:46:15.211Z,100018.09
2022-09-25T10:49:06.999Z,100015.27
2022-09-25T10:51:39.868Z,100009.27
2022-09-25T10:54:17.887Z,100007.92
2022-09-25T10:56:51.741Z,100006.92
2022-09-25T10:59:24.926Z,100009.83
2022-09-25T11:01:56.778Z,100010.92
2022-09-25T11:04:40.531Z,100013.91
2022-09-25T11:07:27.651Z,100011.54
2022-09-25T11:10:01.084Z,100005.98
2022-09-25T11:12:34.563Z,100007.42
2022-09-25T11:15:09.823Z,100008.54
2022-09-25T11:17:44.474Z,100004.16
2022-09-25T11:20:16.804Z,99998.39
2022-09-25T11:22:59.018Z,100000.44
2022-09-25T11:26:01.679Z,99997.00
2022-09-25T11:29:05.422Z,99991.84
2022-09-25T11:32:04.999Z,99990.75
2022-09-25T11:35:41.347Z,99985.52
2022-09-25T12:11:03.015Z,99968.75
2022-09-25T12:13:58.278Z,99961.45
2022-09-25T12:17:15.905Z,99956.45
2022-09-25T12:20:16.554Z,99954.69
2022-09-25T12:22:58.360Z,99952.14
2022-09-25T12:25:58.768Z,99948.02
2022-09-25T12:28:55.562Z,99941.92
2022-09-25T12:31:42.154Z,99937.21
2022-09-25T12:34:42.293Z,99938.85
2022-09-25T12:37:43.644Z,99931.23
2022-09-25T12:40:37.335Z,99932.92
2022-09-25T12:43:36.615Z,99930.99
2022-09-25T12:46:30.175Z,99929.84
2022-09-25T12:49:24.490Z,99929.15
2022-09-25T12:52:05.689Z,99927.31
2022-09-25T12:54:42.987Z,99926.85
2022-09-25T12:58:10.078Z,99925.89
2022-09-25T13:00:46.677Z,99925.66
2022-09-25T13:03:39.283Z,99921.97
2022-09-25T13:06:31.320Z,99922.95
2022-09-25T13:09:17.571Z,99926.29
2022-09-25T13:12:09.272Z,99922.01
2022-09-25T13:14:42.902Z,99918.45
2022-09-25T13:17:15.520Z,99912.42
2022-09-25T13:20:28.959Z,99914.10
2022-09-25T13:23:06.800Z,99913.42
2022-09-25T13:25:50.074Z,99911.81
2022-09-25T13:28:34.933Z,99912.16
2022-09-25T13:31:11.240Z,99913.27
2022-09-25T13:33:51.400Z,99912.25
2022-09-25T13:36:23.684Z,99909.98
2022-09-25T13:39:25.729Z,99906.40
2022-09-25T13:41:58.161Z,99904.55
2022-09-25T13:44:45.231Z,99900.84
2022-09-25T13:47:25.729Z,99901.80
2022-09-25T13:50:10.786Z,99895.69
2022-09-25T13:52:40.029Z,99894.38
2022-09-25T13:55:21.235Z,99890.74
2022-09-25T13:58:02.332Z,99885.93
2022-09-25T14:00:38.005Z,99887.38
2022-09-25T14:03:47.542Z,99887.66
2022-09-25T14:06:39.266Z,99890.26
2022-09-25T14:09:11.125Z,99888.09
2022-09-25T14:12:25.553Z,99886.69
2022-09-25T14:15:19.108Z,99883.19
2022-09-25T14:17:53.104Z,99886.52
2022-09-25T14:20:34.209Z,99884.52
2022-09-25T14:23:33.387Z,99884.70
2022-09-25T14:26:25.715Z,99880.23
2022-09-25T14:28:58.263Z,99880.71
2022-09-25T14:31:29.690Z,99881.02
2022-09-25T14:34:30.115Z,99877.59
2022-09-25T14:37:51.592Z,99874.28
2022-09-25T14:41:13.202Z,99871.61
2022-09-25T14:43:56.782Z,99865.08
2022-09-25T14:46:26.680Z,99860.13
2022-09-25T14:49:24.468Z,99852.55
2022-09-25T14:52:05.896Z,99850.70
2022-09-25T14:55:00.457Z,99848.80
2022-09-25T14:57:39.688Z,99841.30
2022-09-25T15:00:17.271Z,99841.95
2022-09-25T15:02:47.960Z,99839.66
2022-09-25T15:05:37.740Z,99840.10
2022-09-25T15:08:39.161Z,99842.26
2022-09-25T15:11:19.738Z,99845.14
2022-09-25T15:13:48.890Z,99842.70
2022-09-25T15:16:45.302Z,99841.72
2022-09-25T15:19:25.906Z,99843.09
2022-09-25T15:21:55.604Z,99836.55
2022-09-25T15:24:30.877Z,99830.67
2022-09-25T15:27:06.279Z,99829.04
2022-09-25T15:29:43.657Z,99825.84
2022-09-25T15:32:40.397Z,99821.42
2022-09-25T15:35:22.498Z,99822.23
2022-09-25T15:38:11.124Z,99824.34
2022-09-25T15:40:41.799Z,99819.98
2022-09-25T15:43:26.078Z,99815.78
2022-09-25T15:46:37.649Z,99817.52
2022-09-25T15:49:07.141Z,99815.13
2022-09-25T15:51:36.541Z,99817.30
2022-09-25T15:54:32.504Z,99817.29
2022-09-25T15:57:17.345Z,99812.21
2022-09-25T16:00:08.555Z,99814.08
2022-09-25T16:03:01.987Z,99815.60
2022-09-25T16:05:35.521Z,99817.42
2022-09-25T16:08:36.374Z,99818.40
2022-09-25T16:11:23.229Z,99815.92
2022-09-25T16:14:29.371Z,99813.91
2022-09-25T16:17:00.144Z,99811.49
2022-09-25T16:19:33.762Z,99813.41
2022-09-25T16:22:23.998Z,99810.03
2022-09-25T16:24:55.876Z,99803.98
2022-09-25T16:27:34.470Z,99802.81
2022-09-25T16:30:16.454Z,99800.05
2022-09-25T16:32:51.697Z,99801.16
2022-09-25T16:36:09.293Z,99794.82
2022-09-25T16:38:45.498Z,99790.36
2022-09-25T16:41:31.375Z,99793.10
2022-09-25T16:44:22.296Z,99795.42
2022-09-25T16:46:55.285Z,99793.44
2022-09-25T16:49:45.136Z,99789.77
2022-09-25T16:52:27.778Z,99796.25
2022-09-25T16:55:20.927Z,99794.31
2022-09-25T16:58:21.950Z,99796.73
2022-09-25T17:01:05.006Z,99797.98
2022-09-25T17:04:11.277Z,99799.19
2022-09-25T17:07:11.906Z,99799.11
2022-09-25T17:10:08.239Z,99796.30
2022-09-25T17:12:54.345Z,99802.08
2022-09-25T17:15:38.620Z,99801.27
2022-09-25T17:18:40.862Z,99804.74
2022-09-25T17:21:19.308Z,99805.96
2022-09-25T17:23:55.138Z,99805.55
2022-09-25T17:26:33.039Z,99805.27
2022-09-25T17:29:21.893Z,99808.31
2022-09-25T17:31:55.889Z,99808.66
2022-09-25T17:34:33.383Z,99809.40
2022-09-25T17:37:18.369Z,99808.73
2022-09-25T17:39:50.141Z,99810.29
2022-09-25T17:42:22.124Z,99806.94
2022-09-25T17:45:21.638Z,99810.78
2022-09-25T17:48:04.807Z,99812.44
2022-09-25T17:50:50.968Z,99811.88
2022-09-25T17:53:37.970Z,99810.38
2022-09-25T17:56:17.001Z,99806.10
2022-09-25T17:59:01.709Z,99803.07
2022-09-25T18:02:13.332Z,99796.05
2022-09-25T18:05:00.523Z,99799.05
2022-09-25T18:07:40.250Z,99800.25
2022-09-25T18:10:16.704Z,99800.77
2022-09-25T18:13:00.456Z,99798.54
2022-09-25T18:15:57.377Z,99795.61
2022-09-25T18:18:54.176Z,99796.17
2022-09-25T18:21:59.361Z,99794.95
2022-09-25T18:24:53.909Z,99793.55
2022-09-25T18:27:51.781Z,99795.73
2022-09-25T18:30:43.942Z,99790.73
2022-09-25T18:33:35.520Z,99792.05
2022-09-25T18:36:33.342Z,99792.98
2022-09-25T18:39:21.992Z,99792.18
2022-09-25T18:42:02.786Z,99794.66
2022-09-25T18:44:42.601Z,99797.33
2022-09-25T18:47:37.491Z,99802.89
2022-09-25T18:50:20.778Z,99800.45
2022-09-25T18:52:55.020Z,99796.23
2022-09-25T18:55:53.017Z,99795.35
2022-09-25T18:58:33.884Z,99798.53
2022-09-25T19:01:20.273Z,99796.66
2022-09-25T19:07:14.635Z,99791.31
2022-09-25T19:10:21.221Z,99796.65
2022-09-25T19:13:14.949Z,99798.13
2022-09-25T19:16:23.939Z,99791.57
2022-09-25T19:19:07.059Z,99787.16
2022-09-25T19:21:55.496Z,99788.05
2022-09-25T19:27:42.573Z,99789.28
2022-09-25T19:30:56.309Z,99787.02
2022-09-25T19:37:06.007Z,99787.73
2022-09-25T19:43:50.389Z,99784.73
2022-09-25T19:49:34.047Z,99778.15
2022-09-25T19:52:31.035Z,99778.46
2022-09-25T19:55:37.629Z,99772.77
2022-09-25T19:58:31.191Z,99779.55
2022-09-25T20:01:41.379Z,99783.05
2022-09-25T20:04:26.522Z,99775.57
2022-09-25T20:07:29.187Z,99774.94
2022-09-25T20:14:02.347Z,99771.56
2022-09-25T20:19:47.110Z,99775.06
2022-09-25T20:22:26.460Z,99776.08
2022-09-25T20:25:12.610Z,99779.19
2022-09-25T20:27:59.106Z,99778.61
2022-09-25T20:31:09.255Z,99771.33
2022-09-25T20:34:10.760Z,99768.31
2022-09-25T20:37:11.934Z,99767.98
2022-09-25T20:40:12.428Z,99765.04
2022-09-25T20:42:46.002Z,99757.42
2022-09-25T20:45:41.206Z,99760.86
2022-09-25T20:48:13.310Z,99759.29
2022-09-25T20:51:06.910Z,99757.70
2022-09-25T20:54:05.194Z,99756.33
2022-09-25T20:59:52.438Z,99754.79
2022-09-25T21:03:31.371Z,99755.55
2022-09-25T21:09:39.050Z,99750.27
2022-09-25T21:16:47.257Z,99745.70
2022-09-25T21:20:17.540Z,99741.67
2022-09-25T21:26:31.386Z,99741.91
2022-09-25T21:44:31.587Z,99741.26
2022-09-25T21:47:57.969Z,99731.71
2022-09-25T21:50:43.701Z,99729.87
2022-09-25T21:53:35.800Z,99721.94
2022-09-25T21:56:24.768Z,99716.06
2022-09-25T21:59:13.310Z,99713.17
2022-09-25T22:02:10.024Z,99708.89
2022-09-25T22:05:02.798Z,99709.92
2022-09-25T22:07:49.299Z,99711.64
2022-09-25T22:10:48.100Z,99707.30
2022-09-25T22:13:34.446Z,99703.63
2022-09-25T22:16:37.000Z,99704.58
2022-09-25T22:19:39.902Z,99700.61
2022-09-25T22:22:30.806Z,99700.60
2022-09-25T22:25:35.454Z,99699.41
2022-09-25T22:28:17.596Z,99692.47
2022-09-25T22:31:24.868Z,99694.59
2022-09-25T22:34:32.492Z,99689.13
2022-09-25T22:37:13.717Z,99684.59
2022-09-25T22:39:48.326Z,99683.02
2022-09-25T22:42:21.316Z,99675.70
2022-09-25T22:45:02.902Z,99677.36
2022-09-25T22:47:49.757Z,99674.47
2022-09-25T22:50:31.728Z,99670.03
2022-09-25T22:53:08.741Z,99666.85
2022-09-25T22:55:50.699Z,99663.48
2022-09-25T22:58:36.113Z,99662.96
2022-09-25T23:01:55.030Z,99662.34
2022-09-25T23:04:53.581Z,99659.94
2022-09-25T23:07:50.007Z,99664.91
2022-09-25T23:11:06.277Z,99665.40
2022-09-25T23:15:01.272Z,99659.75
2022-09-25T23:18:05.906Z,99656.33
2022-09-25T23:21:01.458Z,99652.48
2022-09-25T23:27:11.033Z,99658.58
2022-09-25T23:33:28.975Z,99653.41
2022-09-25T23:36:25.921Z,99650.65
2022-09-25T23:39:27.155Z,99652.35
2022-09-25T23:42:23.806Z,99653.46
2022-09-25T23:45:17.282Z,99655.95
2022-09-25T23:48:41.237Z,99648.09
2022-09-25T23:51:24.666Z,99641.14
2022-09-25T23:54:14.215Z,99640.42
2022-09-25T23:57:17.323Z,99637.23
